Time;durP1;ratioP1;P1;durP2;ratioP2;P2;SDS_P1;SDS_P2;PMS_P1;PMS_P2;Temp;Humidity;BMP_temperature;BMP_pressure;BME280_temperature;BME280_humidity;BME280_pressure;Samples;Min_cycle;Max_cycle;Signal;HPM_P1;HPM_P2
2022/03/17 00:02:25;;;;;;;79.30;40.63;;;;;;;;;;5075823;28;20549;-52
2022/03/17 00:04:52;;;;;;;111.33;48.10;;;;;;;;;;5076080;28;20215;-54
2022/03/17 00:07:20;;;;;;;91.67;45.60;;;;;;;;;;5075677;28;20638;-52
2022/03/17 00:09:47;;;;;;;89.37;43.93;;;;;;;;;;5075544;28;20674;-55
2022/03/17 00:12:14;;;;;;;100.90;43.63;;;;;;;;;;5075911;28;20199;-52
2022/03/17 00:14:41;;;;;;;112.73;46.23;;;;;;;;;;5075833;28;20219;-53
2022/03/17 00:17:08;;;;;;;340.37;179.33;;;;;;;;;;5075436;28;20206;-53
2022/03/17 00:19:38;;;;;;;237.20;127.67;;;;;;;;;;5075576;28;20658;-54
2022/03/17 00:22:08;;;;;;;183.73;75.23;;;;;;;;;;5075642;28;20233;-52
2022/03/17 00:24:36;;;;;;;118.30;51.00;;;;;;;;;;5075391;28;20211;-56
2022/03/17 00:27:08;;;;;;;98.20;43.60;;;;;;;;;;5075737;28;20544;-54
2022/03/17 00:29:36;;;;;;;92.63;42.97;;;;;;;;;;5058569;28;20215;-53
2022/03/17 00:32:04;;;;;;;80.87;40.10;;;;;;;;;;5075546;28;20286;-53
2022/03/17 00:34:31;;;;;;;65.73;36.90;;;;;;;;;;5075465;28;20264;-52
2022/03/17 00:36:58;;;;;;;85.23;39.77;;;;;;;;;;5075378;28;20223;-52
2022/03/17 00:39:25;;;;;;;355.53;199.47;;;;;;;;;;5075574;28;20268;-55
2022/03/17 00:41:52;;;;;;;156.23;86.80;;;;;;;;;;5075018;28;20319;-54
2022/03/17 00:44:19;;;;;;;153.03;66.77;;;;;;;;;;5074998;28;20245;-51
2022/03/17 00:46:46;;;;;;;114.40;47.57;;;;;;;;;;5075375;28;20297;-51
2022/03/17 00:49:14;;;;;;;101.30;44.13;;;;;;;;;;5075237;28;20218;-53
2022/03/17 00:51:41;;;;;;;85.90;39.87;;;;;;;;;;5057795;28;20542;-54
2022/03/17 00:54:08;;;;;;;74.50;37.10;;;;;;;;;;5074932;28;20503;-55
2022/03/17 00:56:36;;;;;;;73.47;37.43;;;;;;;;;;5074699;28;20211;-52
2022/03/17 00:59:03;;;;;;;70.33;36.13;;;;;;;;;;5074843;28;20254;-54
2022/03/17 01:01:30;;;;;;;321.27;150.00;;;;;;;;;;5074605;28;20258;-55
2022/03/17 01:03:58;;;;;;;135.90;66.07;;;;;;;;;;5075407;28;20236;-56
2022/03/17 01:06:25;;;;;;;129.03;56.07;;;;;;;;;;5075062;28;20210;-52
2022/03/17 01:08:52;;;;;;;122.10;47.83;;;;;;;;;;5074707;28;20203;-54
2022/03/17 01:11:19;;;;;;;106.13;45.27;;;;;;;;;;5074658;28;20286;-51
2022/03/17 01:13:46;;;;;;;99.97;44.27;;;;;;;;;;5074968;28;20220;-51
2022/03/17 01:16:15;;;;;;;97.67;44.50;;;;;;;;;;5074557;28;20535;-55
2022/03/17 01:18:42;;;;;;;111.57;47.97;;;;;;;;;;5074515;28;20664;-51
2022/03/17 01:21:10;;;;;;;103.40;47.53;;;;;;;;;;5074521;28;20258;-51
2022/03/17 01:23:37;;;;;;;118.03;53.63;;;;;;;;;;5074640;28;20199;-55
2022/03/17 01:26:04;;;;;;;287.40;148.57;;;;;;;;;;5074631;28;20286;-53
2022/03/17 01:28:31;;;;;;;165.13;83.17;;;;;;;;;;5057532;28;20223;-54
2022/03/17 01:30:58;;;;;;;89.53;45.73;;;;;;;;;;5074552;28;20298;-55
2022/03/17 01:33:25;;;;;;;72.07;38.07;;;;;;;;;;5074735;28;20219;-53
2022/03/17 01:35:52;;;;;;;75.10;40.57;;;;;;;;;;5074462;28;20231;-54
2022/03/17 01:38:19;;;;;;;85.70;40.83;;;;;;;;;;5074358;28;20234;-54
2022/03/17 01:40:46;;;;;;;77.23;40.00;;;;;;;;;;5074317;28;20305;-51
2022/03/17 01:43:14;;;;;;;84.63;40.93;;;;;;;;;;5074547;28;20234;-50
2022/03/17 01:45:41;;;;;;;276.30;119.27;;;;;;;;;;5074362;28;20286;-53
2022/03/17 01:48:08;;;;;;;462.17;233.73;;;;;;;;;;5074581;28;20207;-54
2022/03/17 01:50:36;;;;;;;232.17;100.60;;;;;;;;;;5074382;28;20245;-51
2022/03/17 01:53:03;;;;;;;163.63;63.13;;;;;;;;;;5074264;28;20227;-50
2022/03/17 01:55:30;;;;;;;111.90;50.37;;;;;;;;;;5074518;28;20195;-54
2022/03/17 01:57:59;;;;;;;97.03;45.60;;;;;;;;;;5056969;28;20226;-56
2022/03/17 02:00:26;;;;;;;85.23;41.53;;;;;;;;;;5057040;28;20222;-52
2022/03/17 02:02:53;;;;;;;85.77;42.63;;;;;;;;;;5074502;28;20332;-54
2022/03/17 02:05:21;;;;;;;108.70;45.83;;;;;;;;;;5074287;28;20204;-55
2022/03/17 02:07:50;;;;;;;478.83;234.93;;;;;;;;;;5074051;28;20213;-54
2022/03/17 02:10:18;;;;;;;553.23;351.00;;;;;;;;;;5077294;28;20253;-55
2022/03/17 02:15:33;;;;;;;139.47;55.80;;;;;;;;;;5077925;28;20241;-54
2022/03/17 02:18:02;;;;;;;88.13;45.37;;;;;;;;;;5078052;28;20257;-53
2022/03/17 02:20:29;;;;;;;86.97;42.67;;;;;;;;;;5077842;28;20573;-55
2022/03/17 02:25:33;;;;;;;80.47;40.60;;;;;;;;;;5077775;28;20613;-54
2022/03/17 02:25:47;;;;;;;95.27;43.00;;;;;;;;;;5077373;28;20207;-55
2022/03/17 02:28:15;;;;;;;82.83;40.70;;;;;;;;;;5078010;28;20337;-55
2022/03/17 02:30:42;;;;;;;609.03;327.13;;;;;;;;;;5078067;28;20211;-55
2022/03/17 02:33:11;;;;;;;500.73;266.30;;;;;;;;;;5077470;28;20273;-54
2022/03/17 02:35:39;;;;;;;231.37;96.60;;;;;;;;;;5077834;28;20640;-52
2022/03/17 02:38:07;;;;;;;167.40;61.77;;;;;;;;;;5060413;28;20638;-55
2022/03/17 02:40:36;;;;;;;139.87;55.03;;;;;;;;;;5077378;28;20223;-52
2022/03/17 02:43:04;;;;;;;141.83;54.77;;;;;;;;;;5077393;28;20661;-55
2022/03/17 02:45:35;;;;;;;136.63;52.70;;;;;;;;;;5077481;28;20221;-53
2022/03/17 02:48:04;;;;;;;99.03;44.77;;;;;;;;;;5077785;28;20245;-51
2022/03/17 02:50:34;;;;;;;126.03;52.33;;;;;;;;;;5077577;28;20233;-52
2022/03/17 02:53:05;;;;;;;809.53;422.43;;;;;;;;;;5077221;28;20695;-53
2022/03/17 02:55:37;;;;;;;796.03;469.10;;;;;;;;;;5077347;28;20218;-53
2022/03/17 02:58:06;;;;;;;210.33;99.83;;;;;;;;;;5077663;28;20206;-52
2022/03/17 03:00:34;;;;;;;108.10;51.90;;;;;;;;;;5076914;28;20261;-53
2022/03/17 03:03:02;;;;;;;87.40;43.97;;;;;;;;;;5077150;28;20292;-55
2022/03/17 03:05:29;;;;;;;94.27;43.33;;;;;;;;;;5077275;28;20218;-52
2022/03/17 03:07:57;;;;;;;72.83;37.60;;;;;;;;;;5077284;28;20624;-52
2022/03/17 03:10:24;;;;;;;81.00;38.90;;;;;;;;;;5077351;28;20200;-53
2022/03/17 03:12:51;;;;;;;84.63;39.10;;;;;;;;;;5077165;28;20221;-55
2022/03/17 03:15:18;;;;;;;157.27;66.83;;;;;;;;;;5076767;28;20562;-56
2022/03/17 03:17:45;;;;;;;450.87;234.07;;;;;;;;;;5076729;28;20209;-53
2022/03/17 03:20:12;;;;;;;201.80;83.50;;;;;;;;;;5076437;28;20203;-51
2022/03/17 03:22:39;;;;;;;95.40;44.30;;;;;;;;;;5076954;28;20245;-52
2022/03/17 03:25:08;;;;;;;100.33;42.30;;;;;;;;;;5077235;28;20199;-54
2022/03/17 03:27:37;;;;;;;92.33;41.33;;;;;;;;;;5076862;28;20199;-52
2022/03/17 03:30:05;;;;;;;93.83;42.57;;;;;;;;;;5076505;28;20226;-52
2022/03/17 03:32:32;;;;;;;94.43;42.63;;;;;;;;;;5076484;28;20204;-53
2022/03/17 03:37:22;;;;;;;96.83;42.73;;;;;;;;;;5076609;28;20227;-55
2022/03/17 03:37:46;;;;;;;170.10;82.00;;;;;;;;;;5076619;28;20229;-54
2022/03/17 03:40:13;;;;;;;310.97;156.93;;;;;;;;;;5076417;28;20194;-54
2022/03/17 03:42:40;;;;;;;170.17;59.47;;;;;;;;;;5076263;28;20207;-55
2022/03/17 03:45:09;;;;;;;162.07;51.97;;;;;;;;;;5076271;28;20210;-55
2022/03/17 03:47:36;;;;;;;113.13;44.80;;;;;;;;;;5076724;28;20294;-52
2022/03/17 03:50:04;;;;;;;82.27;38.20;;;;;;;;;;5076248;28;20227;-54
2022/03/17 03:52:31;;;;;;;70.03;35.27;;;;;;;;;;5076888;28;20297;-55
2022/03/17 03:54:58;;;;;;;80.53;38.20;;;;;;;;;;5076280;28;20196;-52
2022/03/17 03:57:25;;;;;;;82.63;37.87;;;;;;;;;;5076254;28;20219;-54
2022/03/17 03:59:52;;;;;;;450.07;228.47;;;;;;;;;;5075985;28;20202;-55
2022/03/17 04:02:19;;;;;;;489.37;275.03;;;;;;;;;;5076188;28;20642;-55
2022/03/17 04:04:47;;;;;;;108.53;54.43;;;;;;;;;;5076268;28;20204;-54
2022/03/17 04:07:14;;;;;;;116.30;44.70;;;;;;;;;;5075765;28;20286;-54
2022/03/17 04:09:42;;;;;;;85.03;38.43;;;;;;;;;;5075540;28;20210;-55
2022/03/17 04:12:11;;;;;;;79.23;37.13;;;;;;;;;;5075415;28;20215;-53
2022/03/17 04:14:38;;;;;;;79.70;38.13;;;;;;;;;;5075467;28;20222;-54
2022/03/17 04:17:05;;;;;;;78.60;38.30;;;;;;;;;;5075445;28;20214;-55
2022/03/17 04:19:33;;;;;;;95.67;39.57;;;;;;;;;;5075335;28;20207;-60
2022/03/17 04:22:00;;;;;;;295.10;96.07;;;;;;;;;;5075133;28;20227;-55
2022/03/17 04:24:27;;;;;;;1068.40;650.00;;;;;;;;;;5075391;28;20282;-55
2022/03/17 04:26:54;;;;;;;312.67;133.20;;;;;;;;;;5075207;28;20230;-54
2022/03/17 04:29:21;;;;;;;190.73;59.57;;;;;;;;;;5075081;28;20649;-54
2022/03/17 04:31:49;;;;;;;123.97;49.30;;;;;;;;;;5074687;28;20538;-55
2022/03/17 04:34:17;;;;;;;82.97;38.77;;;;;;;;;;5074982;28;20277;-58
2022/03/17 04:36:43;;;;;;;68.63;35.23;;;;;;;;;;5074906;28;20203;-55
2022/03/17 04:39:10;;;;;;;62.23;33.43;;;;;;;;;;5075199;28;20203;-54
2022/03/17 04:41:39;;;;;;;71.57;34.27;;;;;;;;;;5075373;28;20269;-55
2022/03/17 04:44:08;;;;;;;66.77;33.43;;;;;;;;;;5075170;28;20537;-53
2022/03/17 04:46:36;;;;;;;362.73;146.07;;;;;;;;;;5074782;28;20195;-55
2022/03/17 04:49:04;;;;;;;326.10;155.63;;;;;;;;;;5074704;28;20223;-56
2022/03/17 04:51:31;;;;;;;65.90;37.90;;;;;;;;;;5074940;28;20207;-55
2022/03/17 04:54:00;;;;;;;62.40;33.40;;;;;;;;;;5074899;28;20282;-55
2022/03/17 04:56:27;;;;;;;63.97;32.83;;;;;;;;;;5074633;28;20256;-55
2022/03/17 04:58:54;;;;;;;55.23;32.83;;;;;;;;;;5074845;28;20279;-52
2022/03/17 05:01:21;;;;;;;55.30;31.20;;;;;;;;;;5074475;28;20219;-58
2022/03/17 05:03:49;;;;;;;58.13;32.30;;;;;;;;;;5051388;28;20238;-56
2022/03/17 05:06:16;;;;;;;145.40;65.17;;;;;;;;;;5073403;28;20289;-63
2022/03/17 05:08:43;;;;;;;54.70;32.33;;;;;;;;;;5068384;28;20223;-55
2022/03/17 05:11:13;;;;;;;54.57;31.17;;;;;;;;;;5073780;28;20295;-55
2022/03/17 05:13:42;;;;;;;53.90;30.67;;;;;;;;;;5069814;28;20223;-55
2022/03/17 05:16:09;;;;;;;61.20;32.57;;;;;;;;;;5071229;28;20238;-54
2022/03/17 05:18:37;;;;;;;58.03;31.60;;;;;;;;;;5068113;28;20310;-54
2022/03/17 05:21:04;;;;;;;56.87;30.83;;;;;;;;;;5059139;28;20224;-53
2022/03/17 05:23:31;;;;;;;59.37;31.17;;;;;;;;;;5053748;28;20234;-53
2022/03/17 05:25:59;;;;;;;51.80;29.60;;;;;;;;;;5053538;28;20738;-56
2022/03/17 05:28:26;;;;;;;46.47;27.93;;;;;;;;;;5054017;28;20678;-59
2022/03/17 05:30:54;;;;;;;92.63;43.90;;;;;;;;;;5053700;28;20255;-55
2022/03/17 05:33:21;;;;;;;51.77;29.10;;;;;;;;;;5053482;28;20624;-55
2022/03/17 05:35:48;;;;;;;55.07;29.73;;;;;;;;;;5053434;28;20248;-54
2022/03/17 05:38:16;;;;;;;49.37;28.87;;;;;;;;;;5053908;28;20568;-51
2022/03/17 05:40:44;;;;;;;47.20;28.20;;;;;;;;;;5053276;28;20251;-52
2022/03/17 05:43:11;;;;;;;43.47;25.40;;;;;;;;;;5055255;28;20219;-62
2022/03/17 05:45:40;;;;;;;44.47;26.07;;;;;;;;;;5057271;28;20220;-59
2022/03/17 05:48:08;;;;;;;42.27;24.43;;;;;;;;;;5056297;28;20278;-56
2022/03/17 05:50:41;;;;;;;43.73;24.57;;;;;;;;;;5072145;28;20225;-57
2022/03/17 05:53:09;;;;;;;72.37;34.00;;;;;;;;;;5077379;28;20220;-56
2022/03/17 05:55:37;;;;;;;44.87;25.27;;;;;;;;;;5076486;28;20235;-49
2022/03/17 05:58:05;;;;;;;56.10;25.70;;;;;;;;;;5077648;28;20219;-52
2022/03/17 06:00:32;;;;;;;54.13;25.53;;;;;;;;;;5077300;28;20250;-50
2022/03/17 06:03:00;;;;;;;38.83;22.23;;;;;;;;;;5077123;28;20279;-52
2022/03/17 06:05:28;;;;;;;44.90;23.00;;;;;;;;;;5077101;28;20234;-54
2022/03/17 06:08:00;;;;;;;41.23;21.70;;;;;;;;;;5077803;28;20314;-51
2022/03/17 06:10:33;;;;;;;59.27;25.60;;;;;;;;;;5077194;28;20265;-58
2022/03/17 06:13:03;;;;;;;774.67;441.30;;;;;;;;;;5077888;28;20227;-52
2022/03/17 06:15:31;;;;;;;111.93;44.20;;;;;;;;;;5077151;28;20247;-53
2022/03/17 06:17:59;;;;;;;92.63;30.50;;;;;;;;;;5076947;28;20233;-55
2022/03/17 06:20:32;;;;;;;51.20;24.40;;;;;;;;;;5076637;28;20219;-58
2022/03/17 06:23:01;;;;;;;52.10;23.67;;;;;;;;;;5077096;28;20275;-55
2022/03/17 06:25:31;;;;;;;48.53;22.80;;;;;;;;;;5076674;28;20674;-55
2022/03/17 06:28:06;;;;;;;51.80;23.77;;;;;;;;;;5077104;28;20324;-51
2022/03/17 06:30:36;;;;;;;45.57;22.13;;;;;;;;;;5077218;28;20741;-53
2022/03/17 06:33:04;;;;;;;54.73;24.40;;;;;;;;;;5077935;28;20219;-54
2022/03/17 06:35:32;;;;;;;58.33;28.70;;;;;;;;;;5077770;28;20280;-54
2022/03/17 06:38:00;;;;;;;107.07;33.50;;;;;;;;;;5077691;28;20252;-55
2022/03/17 06:40:29;;;;;;;52.97;24.60;;;;;;;;;;5077767;28;20318;-55
2022/03/17 06:42:56;;;;;;;51.60;22.73;;;;;;;;;;5077321;28;20223;-54
2022/03/17 06:45:25;;;;;;;62.57;24.57;;;;;;;;;;5077626;28;20224;-54
2022/03/17 06:47:52;;;;;;;59.40;25.23;;;;;;;;;;5077518;28;20630;-55
2022/03/17 06:50:21;;;;;;;60.03;23.97;;;;;;;;;;5077523;28;20294;-60
2022/03/17 06:52:49;;;;;;;48.40;22.20;;;;;;;;;;5077560;28;20241;-53
2022/03/17 06:55:17;;;;;;;476.93;195.93;;;;;;;;;;5076690;28;20199;-51
2022/03/17 06:57:44;;;;;;;115.43;34.30;;;;;;;;;;5077150;28;20206;-51
2022/03/17 07:00:13;;;;;;;60.80;23.87;;;;;;;;;;5077094;28;20223;-51
2022/03/17 07:02:40;;;;;;;65.27;25.80;;;;;;;;;;5076920;28;20231;-52
2022/03/17 07:05:09;;;;;;;65.20;25.13;;;;;;;;;;5076982;28;20227;-54
2022/03/17 07:07:36;;;;;;;65.57;25.40;;;;;;;;;;5077056;28;20269;-55
2022/03/17 07:10:08;;;;;;;35.63;18.10;;;;;;;;;;5077409;28;20199;-52
2022/03/17 07:12:36;;;;;;;44.30;20.87;;;;;;;;;;5027667;28;20203;-52
2022/03/17 07:15:06;;;;;;;30.07;18.10;;;;;;;;;;5077090;28;20233;-51
2022/03/17 07:17:41;;;;;;;150.90;62.00;;;;;;;;;;5077115;28;20307;-50
2022/03/17 07:20:14;;;;;;;46.33;20.87;;;;;;;;;;5077489;28;20574;-51
2022/03/17 07:22:42;;;;;;;36.57;18.77;;;;;;;;;;5076835;28;20226;-52
2022/03/17 07:25:11;;;;;;;37.43;18.43;;;;;;;;;;5076687;28;20547;-54
2022/03/17 07:27:43;;;;;;;36.13;17.73;;;;;;;;;;5076597;28;20206;-52
2022/03/17 07:30:18;;;;;;;40.13;19.47;;;;;;;;;;5077447;28;20599;-51
2022/03/17 07:32:48;;;;;;;46.03;20.33;;;;;;;;;;5076517;28;20202;-52
2022/03/17 07:35:15;;;;;;;55.73;22.10;;;;;;;;;;5076708;28;20207;-51
2022/03/17 07:37:43;;;;;;;279.80;106.63;;;;;;;;;;5076878;28;20269;-53
2022/03/17 07:40:11;;;;;;;161.67;45.30;;;;;;;;;;5076345;28;20638;-53
2022/03/17 07:42:38;;;;;;;127.03;33.77;;;;;;;;;;5076384;28;20553;-51
2022/03/17 07:45:37;;;;;;;36.03;16.03;;;;;;;;;;5076499;28;20222;-51
2022/03/17 07:48:22;;;;;;;81.47;25.37;;;;;;;;;;5076237;28;20192;-54
2022/03/17 07:51:12;;;;;;;31.47;16.37;;;;;;;;;;5075902;28;20219;-51
2022/03/17 07:53:39;;;;;;;40.00;16.70;;;;;;;;;;5076043;28;20207;-52
2022/03/17 07:56:12;;;;;;;37.77;17.33;;;;;;;;;;5076068;28;20218;-51
2022/03/17 07:58:39;;;;;;;501.23;203.17;;;;;;;;;;5076032;28;20265;-51
2022/03/17 08:01:07;;;;;;;138.40;39.90;;;;;;;;;;5075937;28;20230;-51
2022/03/17 08:03:34;;;;;;;80.80;22.80;;;;;;;;;;5076183;28;20300;-53
2022/03/17 08:06:02;;;;;;;63.53;21.33;;;;;;;;;;5074948;28;20670;-54
2022/03/17 08:08:29;;;;;;;39.60;18.03;;;;;;;;;;5075570;28;20261;-51
2022/03/17 08:10:57;;;;;;;30.60;15.63;;;;;;;;;;5075936;28;20215;-51
2022/03/17 08:13:25;;;;;;;47.80;18.33;;;;;;;;;;5075852;28;20668;-54
2022/03/17 08:15:52;;;;;;;73.23;21.93;;;;;;;;;;5075765;28;20554;-53
2022/03/17 08:18:20;;;;;;;68.47;21.87;;;;;;;;;;5075647;28;20209;-55
2022/03/17 08:20:47;;;;;;;174.23;52.93;;;;;;;;;;5075812;28;20207;-51
2022/03/17 08:23:21;;;;;;;67.43;20.37;;;;;;;;;;5075703;28;20251;-53
2022/03/17 08:25:49;;;;;;;54.43;18.40;;;;;;;;;;5075732;28;20195;-51
2022/03/17 08:28:19;;;;;;;50.33;17.53;;;;;;;;;;5075436;28;20621;-52
2022/03/17 08:30:47;;;;;;;18.90;11.30;;;;;;;;;;5076019;28;20202;-52
2022/03/17 08:33:15;;;;;;;27.43;14.20;;;;;;;;;;5075679;28;20230;-53
2022/03/17 08:35:42;;;;;;;26.10;13.63;;;;;;;;;;5075415;28;20634;-51
2022/03/17 08:38:10;;;;;;;52.67;18.60;;;;;;;;;;5058519;28;20215;-53
2022/03/17 08:40:38;;;;;;;1999.90;908.00;;;;;;;;;;5075495;28;20298;-53
2022/03/17 08:43:09;;;;;;;612.53;228.70;;;;;;;;;;5075000;28;20369;-54
2022/03/17 08:51:09;;;;;;;35.30;15.70;;;;;;;;;;5075687;28;20268;-51
2022/03/17 08:53:37;;;;;;;45.67;16.87;;;;;;;;;;5075219;28;20231;-51
2022/03/17 08:56:04;;;;;;;36.37;15.53;;;;;;;;;;5075143;28;20218;-51
2022/03/17 08:58:34;;;;;;;33.37;14.03;;;;;;;;;;5075157;28;20207;-53
2022/03/17 09:01:01;;;;;;;39.17;14.33;;;;;;;;;;5075034;28;20545;-55
2022/03/17 09:03:30;;;;;;;778.00;350.17;;;;;;;;;;5075805;28;20266;-54
2022/03/17 09:05:59;;;;;;;98.47;23.83;;;;;;;;;;5075050;28;20211;-52
2022/03/17 09:08:27;;;;;;;67.77;18.83;;;;;;;;;;5074918;28;20203;-52
2022/03/17 09:10:56;;;;;;;55.00;17.40;;;;;;;;;;5074803;28;20199;-50
2022/03/17 09:13:28;;;;;;;47.93;14.90;;;;;;;;;;5074663;28;20641;-51
2022/03/17 09:15:55;;;;;;;44.23;14.80;;;;;;;;;;5074708;28;20690;-51
2022/03/17 09:18:23;;;;;;;41.63;14.43;;;;;;;;;;5074331;28;20227;-51
2022/03/17 09:20:50;;;;;;;33.87;11.47;;;;;;;;;;5040233;28;20223;-52
2022/03/17 09:23:18;;;;;;;21.20;9.47;;;;;;;;;;5074696;28;20674;-52
2022/03/17 09:25:45;;;;;;;173.53;37.93;;;;;;;;;;5074784;28;20229;-53
2022/03/17 09:28:13;;;;;;;117.87;24.23;;;;;;;;;;5074488;28;20593;-51
2022/03/17 09:30:41;;;;;;;70.20;18.00;;;;;;;;;;5075423;28;20199;-55
2022/03/17 09:33:09;;;;;;;42.10;13.30;;;;;;;;;;5074614;28;20242;-54
2022/03/17 09:35:36;;;;;;;41.30;13.87;;;;;;;;;;5074564;28;20203;-52
2022/03/17 09:38:04;;;;;;;47.97;14.80;;;;;;;;;;5074451;28;20693;-51
2022/03/17 09:40:31;;;;;;;38.03;10.83;;;;;;;;;;5074524;28;20211;-55
2022/03/17 09:45:51;;;;;;;341.77;88.43;;;;;;;;;;5074738;28;20191;-51
2022/03/17 09:48:20;;;;;;;68.60;15.47;;;;;;;;;;5074653;28;20290;-52
2022/03/17 09:50:54;;;;;;;60.17;14.47;;;;;;;;;;5074644;28;20261;-51
2022/03/17 09:53:27;;;;;;;22.90;7.80;;;;;;;;;;5074363;28;20261;-54
2022/03/17 09:55:55;;;;;;;48.30;13.37;;;;;;;;;;5074558;28;20199;-53
2022/03/17 09:58:22;;;;;;;9.83;5.30;;;;;;;;;;5074334;28;20230;-52
2022/03/17 10:00:49;;;;;;;16.93;6.57;;;;;;;;;;5074714;28;20269;-55
2022/03/17 10:03:18;;;;;;;24.23;9.30;;;;;;;;;;5074410;28;20693;-51
2022/03/17 10:05:46;;;;;;;387.17;118.40;;;;;;;;;;5074352;28;20203;-55
2022/03/17 10:08:20;;;;;;;188.10;34.27;;;;;;;;;;5074249;28;20294;-54
2022/03/17 10:10:49;;;;;;;86.03;17.73;;;;;;;;;;5074180;28;20587;-52
2022/03/17 10:13:21;;;;;;;8.97;4.60;;;;;;;;;;5074428;28;20257;-51
2022/03/17 10:16:07;;;;;;;7.03;4.37;;;;;;;;;;5074300;28;20227;-52
2022/03/17 10:18:38;;;;;;;23.77;7.43;;;;;;;;;;5074175;28;20278;-51
2022/03/17 10:21:09;;;;;;;45.27;10.70;;;;;;;;;;5074579;28;20546;-52
2022/03/17 10:23:46;;;;;;;33.80;9.30;;;;;;;;;;5074027;28;20211;-53
2022/03/17 10:26:35;;;;;;;6.90;4.40;;;;;;;;;;5074267;28;20226;-53
2022/03/17 10:29:05;;;;;;;551.20;219.33;;;;;;;;;;5074027;28;20622;-54
2022/03/17 10:31:48;;;;;;;65.30;13.77;;;;;;;;;;5077730;28;20213;-51
2022/03/17 10:34:16;;;;;;;8.57;5.00;;;;;;;;;;5078058;28;20192;-54
2022/03/17 10:36:45;;;;;;;10.33;5.47;;;;;;;;;;5077541;28;20199;-56
2022/03/17 10:39:12;;;;;;;6.07;4.07;;;;;;;;;;5077984;28;20207;-53
2022/03/17 10:41:45;;;;;;;7.37;4.50;;;;;;;;;;5077695;28;20200;-53
2022/03/17 10:44:15;;;;;;;44.20;20.00;;;;;;;;;;5077465;28;20297;-55
2022/03/17 10:47:01;;;;;;;63.93;33.70;;;;;;;;;;5077830;28;20298;-51
2022/03/17 10:49:29;;;;;;;813.50;353.13;;;;;;;;;;5077660;28;20242;-56
2022/03/17 10:51:56;;;;;;;54.97;30.37;;;;;;;;;;5077548;28;20215;-56
2022/03/17 10:54:24;;;;;;;67.40;16.80;;;;;;;;;;5078065;28;20231;-52
2022/03/17 10:57:09;;;;;;;40.63;12.83;;;;;;;;;;5077141;28;20260;-56
2022/03/17 10:59:47;;;;;;;10.60;5.80;;;;;;;;;;5077216;28;20238;-53
2022/03/17 11:02:17;;;;;;;7.37;4.53;;;;;;;;;;5077096;28;20207;-53
2022/03/17 11:04:47;;;;;;;44.20;14.23;;;;;;;;;;5077788;28;20222;-55
2022/03/17 11:07:15;;;;;;;13.85;6.05;;;;;;;;;;5077128;28;20223;-56
2022/03/17 11:09:43;;;;;;;560.67;242.20;;;;;;;;;;5077220;28;20204;-56
2022/03/17 11:12:18;;;;;;;17.90;8.85;;;;;;;;;;5059103;28;20360;-55
2022/03/17 11:14:55;;;;;;;31.33;6.27;;;;;;;;;;5077917;28;20522;-54
2022/03/17 11:17:38;;;;;;;19.63;7.30;;;;;;;;;;5077022;28;20222;-51
2022/03/17 11:20:07;;;;;;;7.63;4.47;;;;;;;;;;5076803;28;20218;-56
2022/03/17 11:22:36;;;;;;;9.40;5.57;;;;;;;;;;5076950;28;20301;-52
2022/03/17 11:25:15;;;;;;;26.17;9.67;;;;;;;;;;5059525;28;20219;-55
2022/03/17 11:27:54;;;;;;;41.77;17.87;;;;;;;;;;5076678;28;20203;-51
2022/03/17 11:30:22;;;;;;;8.80;4.67;;;;;;;;;;5060023;28;20195;-53
2022/03/17 11:32:54;;;;;;;6.90;4.00;;;;;;;;;;5059617;28;20245;-54
2022/03/17 11:35:25;;;;;;;8.40;4.37;;;;;;;;;;5076532;28;20583;-55
2022/03/17 11:38:14;;;;;;;8.02;4.57;;;;;;;;;;5076484;28;20211;-55
2022/03/17 11:41:11;;;;;;;13.83;8.10;;;;;;;;;;5059079;28;20484;-54
2022/03/17 11:43:59;;;;;;;9.40;5.55;;;;;;;;;;5076484;28;20266;-53
2022/03/17 11:46:45;;;;;;;12.05;6.35;;;;;;;;;;5076052;28;20222;-54
2022/03/17 11:49:27;;;;;;;32.13;11.07;;;;;;;;;;5076650;28;20211;-56
2022/03/17 11:52:03;;;;;;;245.00;71.87;;;;;;;;;;5076321;28;20214;-55
2022/03/17 11:54:31;;;;;;;142.50;28.80;;;;;;;;;;5076110;28;20699;-54
2022/03/17 11:57:00;;;;;;;34.43;13.37;;;;;;;;;;5076662;28;20223;-54
2022/03/17 11:59:30;;;;;;;48.30;11.13;;;;;;;;;;5076102;28;20195;-55
2022/03/17 12:01:58;;;;;;;53.17;13.63;;;;;;;;;;5058726;28;20204;-55
2022/03/17 12:04:31;;;;;;;35.88;12.82;;;;;;;;;;5036168;28;20233;-55
2022/03/17 12:07:20;;;;;;;121.33;34.70;;;;;;;;;;5035190;28;20282;-54
2022/03/17 12:09:47;;;;;;;86.43;23.80;;;;;;;;;;5036081;28;20200;-55
2022/03/17 12:12:22;;;;;;;1999.90;804.60;;;;;;;;;;5035804;28;20205;-56
2022/03/17 12:14:50;;;;;;;288.70;55.83;;;;;;;;;;5035176;28;20218;-54
2022/03/17 12:17:19;;;;;;;97.40;18.53;;;;;;;;;;5036139;28;20239;-54
2022/03/17 12:19:51;;;;;;;45.40;13.88;;;;;;;;;;5035711;28;20212;-52
2022/03/17 12:22:21;;;;;;;61.30;12.48;;;;;;;;;;5035655;28;20635;-56
2022/03/17 12:24:57;;;;;;;52.33;12.13;;;;;;;;;;5035688;28;20221;-52
2022/03/17 12:27:30;;;;;;;55.88;13.88;;;;;;;;;;5034694;28;20200;-51
2022/03/17 12:30:08;;;;;;;62.17;13.32;;;;;;;;;;5035613;28;20628;-55
2022/03/17 12:32:38;;;;;;;339.38;103.18;;;;;;;;;;5035497;28;20193;-56
2022/03/17 12:35:08;;;;;;;1713.20;666.20;;;;;;;;;;5035842;28;20205;-55
2022/03/17 12:37:36;;;;;;;118.53;40.08;;;;;;;;;;5035384;28;20215;-54
2022/03/17 12:40:06;;;;;;;67.75;27.20;;;;;;;;;;5035553;28;20232;-54
2022/03/17 12:42:41;;;;;;;53.07;13.23;;;;;;;;;;5035585;28;20251;-54
2022/03/17 12:45:13;;;;;;;44.22;12.57;;;;;;;;;;5035309;28;20188;-54
2022/03/17 12:47:42;;;;;;;28.15;9.20;;;;;;;;;;5035591;28;20221;-54
2022/03/17 12:50:11;;;;;;;21.42;8.07;;;;;;;;;;5027843;28;20280;-55
2022/03/17 12:52:41;;;;;;;26.92;8.73;;;;;;;;;;5032413;28;20221;-55
2022/03/17 12:55:13;;;;;;;49.58;21.30;;;;;;;;;;5032242;28;20232;-57
2022/03/17 12:57:41;;;;;;;24.33;12.85;;;;;;;;;;5033483;28;20244;-54
2022/03/17 13:00:11;;;;;;;70.15;18.00;;;;;;;;;;5033723;28;20624;-54
2022/03/17 13:02:44;;;;;;;54.38;19.85;;;;;;;;;;5044656;28;20239;-54
2022/03/17 13:08:01;;;;;;;24.43;9.77;;;;;;;;;;5074013;28;20654;-58
2022/03/17 13:10:29;;;;;;;32.77;15.37;;;;;;;;;;5074075;28;20219;-54
2022/03/17 13:15:46;;;;;;;27.93;11.37;;;;;;;;;;5073854;28;20708;-52
2022/03/17 13:18:16;;;;;;;166.73;57.47;;;;;;;;;;5074028;28;20215;-53
2022/03/17 13:20:43;;;;;;;120.47;22.87;;;;;;;;;;5073562;28;20219;-53
2022/03/17 13:23:11;;;;;;;34.03;17.23;;;;;;;;;;5066970;28;20334;-53
2022/03/17 13:25:39;;;;;;;48.90;18.93;;;;;;;;;;5073681;28;20233;-54
2022/03/17 13:28:12;;;;;;;37.23;16.20;;;;;;;;;;5064052;28;20557;-55
2022/03/17 13:30:45;;;;;;;35.77;17.60;;;;;;;;;;5053524;28;20228;-54
2022/03/17 13:33:12;;;;;;;34.97;16.33;;;;;;;;;;5054361;28;20358;-51
2022/03/17 13:35:44;;;;;;;27.60;7.93;;;;;;;;;;5072614;28;20227;-54
2022/03/17 13:38:19;;;;;;;4.80;3.30;;;;;;;;;;5057770;28;20322;-56
2022/03/17 13:40:52;;;;;;;48.07;20.27;;;;;;;;;;5065258;28;20316;-60
2022/03/17 13:43:30;;;;;;;70.55;17.02;;;;;;;;;;5073782;28;20211;-53
2022/03/17 13:45:59;;;;;;;41.73;14.20;;;;;;;;;;5072812;28;20231;-58
2022/03/17 13:48:29;;;;;;;18.40;9.93;;;;;;;;;;5073760;28;20227;-55
2022/03/17 13:51:01;;;;;;;34.20;15.15;;;;;;;;;;5068725;28;20268;-55
2022/03/17 13:53:33;;;;;;;29.20;13.13;;;;;;;;;;5071458;28;20219;-57
2022/03/17 13:56:09;;;;;;;35.03;14.30;;;;;;;;;;5072225;28;20231;-62
2022/03/17 13:58:38;;;;;;;1339.07;474.15;;;;;;;;;;5052956;28;20233;-56
2022/03/17 14:01:16;;;;;;;366.77;70.15;;;;;;;;;;5071892;28;20231;-57
2022/03/17 14:03:49;;;;;;;73.03;18.10;;;;;;;;;;5072989;28;20230;-56
2022/03/17 14:06:19;;;;;;;71.22;15.75;;;;;;;;;;5040204;28;20258;-57
2022/03/17 14:08:56;;;;;;;46.83;14.90;;;;;;;;;;5076499;28;20231;-57
2022/03/17 14:11:29;;;;;;;20.27;7.38;;;;;;;;;;5074373;28;20245;-57
2022/03/17 14:14:03;;;;;;;46.28;11.65;;;;;;;;;;5073170;28;20683;-55
2022/03/17 14:16:32;;;;;;;21.95;11.38;;;;;;;;;;5073016;28;20600;-57
2022/03/17 14:19:00;;;;;;;9.97;5.60;;;;;;;;;;5074797;28;20241;-58
2022/03/17 14:21:29;;;;;;;57.60;15.50;;;;;;;;;;5075924;28;20561;-56
2022/03/17 14:24:13;;;;;;;118.85;37.17;;;;;;;;;;5058630;28;20227;-58
2022/03/17 14:26:41;;;;;;;47.80;11.63;;;;;;;;;;5074660;28;20227;-55
2022/03/17 14:29:14;;;;;;;42.47;12.20;;;;;;;;;;5072598;28;20643;-57
2022/03/17 14:31:43;;;;;;;21.37;6.90;;;;;;;;;;5076656;28;20216;-55
2022/03/17 14:34:12;;;;;;;19.88;7.32;;;;;;;;;;5075047;28;20316;-55
2022/03/17 14:36:41;;;;;;;34.85;11.02;;;;;;;;;;5072802;28;20257;-57
2022/03/17 14:39:09;;;;;;;26.88;10.27;;;;;;;;;;5075466;28;20307;-56
2022/03/17 14:41:38;;;;;;;28.05;8.40;;;;;;;;;;5072789;28;20227;-57
2022/03/17 14:44:06;;;;;;;449.27;160.48;;;;;;;;;;5075260;28;20238;-58
2022/03/17 14:46:34;;;;;;;118.68;27.90;;;;;;;;;;5075000;28;20624;-57